Time;durP1;ratioP1;P1;durP2;ratioP2;P2;SDS_P1;SDS_P2;PMS_P1;PMS_P2;Temp;Humidity;BMP_temperature;BMP_pressure;BME280_temperature;BME280_humidity;BME280_pressure;Samples;Min_cycle;Max_cycle;Signal;HPM_P1;HPM_P2
2023/05/06 05:17:07;;;;;;;5.03;2.80;;;10.80;99.90;;;;;;5077483;28;20620;-80
2023/05/06 05:23:13;;;;;;;2.73;2.50;;;;;;;;;;5118326;27;20582;-80
2023/05/06 05:28:45;;;;;;;7.90;2.77;;;;;;;;;;5138261;27;20283;-78
2023/05/06 05:34:29;;;;;;;2.80;2.17;;;11.30;99.90;;;;;;5137322;27;20263;-79
2023/05/06 05:39:14;;;;;;;6.20;2.20;;;11.40;99.90;;;;;;5117750;27;20272;-79
2023/05/06 05:44:11;;;;;;;2.20;1.90;;;;;;;;;;5139279;27;20283;-80
2023/05/06 05:49:13;;;;;;;2.40;1.93;;;;;;;;;;5150740;27;20294;-80
2023/05/06 05:58:05;;;;;;;5.20;2.57;;;11.60;99.90;;;;;;5138490;27;20290;-80
2023/05/06 06:03:23;;;;;;;2.03;1.83;;;;;;;;;;5139369;27;20286;-80
2023/05/06 06:07:59;;;;;;;2.97;2.00;;;12.20;99.90;;;;;;5099608;28;21136;-79
2023/05/06 06:12:21;;;;;;;2.10;1.90;;;12.20;99.90;;;;;;5147538;27;20366;-80
2023/05/06 06:16:04;;;;;;;2.07;1.87;;;;;;;;;;5137861;27;20271;-80
2023/05/06 06:20:01;;;;;;;2.63;2.00;;;12.70;99.90;;;;;;5137036;27;20271;-79
2023/05/06 06:22:27;;;;;;;1.97;1.80;;;;;;;;;;5136843;28;20254;-79
2023/05/06 06:24:53;;;;;;;2.53;2.13;;;;;;;;;;5136095;28;20167;-79
2023/05/06 06:28:01;;;;;;;2.30;1.80;;;;;;;;;;5137464;27;20284;-79
2023/05/06 06:30:27;;;;;;;1.97;1.87;;;13.30;99.90;;;;;;5136687;28;20262;-79
2023/05/06 06:32:53;;;;;;;2.40;1.80;;;13.30;99.90;;;;;;5136856;27;20174;-79
2023/05/06 06:35:19;;;;;;;2.23;1.80;;;13.40;99.90;;;;;;5136175;28;20236;-79
2023/05/06 06:37:45;;;;;;;2.47;1.87;;;13.40;99.90;;;;;;5135844;28;20684;-79
2023/05/06 06:40:12;;;;;;;2.27;2.03;;;13.60;99.90;;;;;;5135464;28;20677;-79
2023/05/06 06:42:37;;;;;;;4.37;2.27;;;13.80;99.90;;;;;;5135026;28;20674;-79
2023/05/06 06:45:04;;;;;;;3.20;2.30;;;13.80;99.90;;;;;;5134499;28;20178;-79
2023/05/06 06:47:29;;;;;;;3.63;2.00;;;13.90;99.90;;;;;;5135301;28;20206;-79
2023/05/06 06:52:18;;;;;;;3.80;2.40;;;14.00;99.90;;;;;;5137329;27;20603;-79
2023/05/06 06:56:18;;;;;;;2.43;2.10;;;14.00;99.90;;;;;;5137770;27;20275;-79
2023/05/06 07:01:00;;;;;;;3.03;2.20;;;14.20;99.90;;;;;;5136698;27;20271;-79
2023/05/06 07:03:26;;;;;;;4.53;2.13;;;14.40;99.90;;;;;;5137643;28;20198;-79
2023/05/06 07:08:09;;;;;;;3.60;2.30;;;14.40;99.90;;;;;;5115568;27;20646;-79
2023/05/06 07:10:35;;;;;;;2.87;2.20;;;14.50;99.90;;;;;;5115010;28;20259;-79
2023/05/06 07:15:05;;;;;;;3.87;2.27;;;14.60;99.90;;;;;;5077036;27;20525;-79
2023/05/06 07:17:32;;;;;;;5.63;2.93;;;14.60;99.90;;;;;;5076595;28;20197;-79
2023/05/06 07:23:42;;;;;;;4.13;2.50;;;14.30;99.90;;;;;;5074382;28;20539;-78
2023/05/06 07:29:30;;;;;;;3.43;2.60;;;14.00;99.90;;;;;;5133121;27;20778;-77
2023/05/06 07:33:57;;;;;;;7.07;4.33;;;;;;;;;;5111667;27;20278;-77
2023/05/06 07:38:57;;;;;;;3.10;2.53;;;;;;;;;;5146437;27;20283;-78
2023/05/06 07:43:10;;;;;;;3.80;3.00;;;14.30;99.90;;;;;;5111769;27;20609;-79
2023/05/06 07:45:35;;;;;;;6.10;3.63;;;14.30;99.90;;;;;;5110981;28;20177;-77
2023/05/06 07:48:01;;;;;;;6.27;4.00;;;14.40;99.90;;;;;;5110906;28;20220;-77
2023/05/06 07:50:27;;;;;;;3.27;2.97;;;14.40;99.90;;;;;;5110895;28;20176;-77
2023/05/06 07:52:52;;;;;;;4.73;4.03;;;14.60;99.90;;;;;;5109597;28;20559;-78
2023/05/06 07:55:18;;;;;;;3.57;3.13;;;15.00;99.90;;;;;;5109740;28;20250;-78
2023/05/06 07:57:44;;;;;;;5.47;3.33;;;15.30;99.90;;;;;;5109456;28;20200;-77
2023/05/06 08:00:10;;;;;;;4.33;3.40;;;15.50;99.90;;;;;;5110727;28;20567;-78
2023/05/06 08:02:37;;;;;;;4.23;3.83;;;15.70;99.90;;;;;;5110671;28;20335;-78
2023/05/06 08:05:06;;;;;;;3.70;3.40;;;15.70;99.90;;;;;;5110801;28;20214;-77
2023/05/06 08:07:32;;;;;;;3.97;3.57;;;15.70;99.90;;;;;;5110774;28;20193;-76
2023/05/06 08:09:57;;;;;;;3.97;3.50;;;15.60;99.90;;;;;;5110607;28;20185;-77
2023/05/06 08:12:23;;;;;;;4.60;4.20;;;15.50;99.90;;;;;;5110747;28;20180;-76
2023/05/06 08:14:50;;;;;;;4.73;4.33;;;15.40;99.90;;;;;;5110452;28;20176;-76
2023/05/06 08:17:16;;;;;;;5.07;4.60;;;15.20;99.90;;;;;;5109253;28;20210;-81
2023/05/06 08:19:42;;;;;;;5.43;4.40;;;15.00;99.90;;;;;;5116458;28;20180;-79
2023/05/06 08:22:07;;;;;;;7.47;4.77;;;15.00;99.90;;;;;;5117942;28;20264;-79
2023/05/06 08:24:33;;;;;;;5.83;5.20;;;15.00;99.90;;;;;;5117474;28;20221;-79
2023/05/06 08:27:02;;;;;;;6.17;4.63;;;14.90;99.90;;;;;;5118469;28;20346;-79
2023/05/06 08:29:27;;;;;;;7.37;4.80;;;15.00;99.90;;;;;;5119182;28;20188;-79
2023/05/06 08:31:53;;;;;;;5.43;4.93;;;15.00;99.90;;;;;;5119235;28;20184;-79
2023/05/06 08:34:20;;;;;;;5.53;4.07;;;15.10;99.90;;;;;;5118886;28;20272;-79
2023/05/06 08:36:47;;;;;;;4.90;4.40;;;15.20;99.90;;;;;;5118592;28;20179;-79
2023/05/06 08:39:13;;;;;;;5.47;4.40;;;15.20;99.90;;;;;;5127546;28;20180;-78
2023/05/06 08:41:39;;;;;;;5.53;4.97;;;15.30;99.90;;;;;;5127829;28;20303;-79
2023/05/06 08:44:07;;;;;;;4.70;4.30;;;15.70;99.90;;;;;;5115785;28;20296;-78
2023/05/06 08:46:33;;;;;;;5.70;4.47;;;17.00;99.90;;;;;;5118262;28;20173;-79
2023/05/06 08:48:59;;;;;;;8.27;4.03;;;17.70;99.90;;;;;;5116890;28;20194;-79
2023/05/06 08:51:31;;;;;;;6.87;4.47;;;18.50;99.90;;;;;;5116387;28;20280;-80
2023/05/06 08:54:01;;;;;;;4.30;3.90;;;18.50;99.90;;;;;;5106862;28;20185;-80
2023/05/06 08:56:30;;;;;;;4.33;3.90;;;18.10;99.90;;;;;;5102485;28;20170;-80
2023/05/06 08:58:57;;;;;;;6.30;3.47;;;17.50;99.90;;;;;;5102436;28;20196;-79
2023/05/06 09:01:26;;;;;;;4.60;4.20;;;16.90;99.90;;;;;;5100845;28;20665;-80
2023/05/06 09:03:52;;;;;;;5.37;3.90;;;16.20;99.90;;;;;;5100123;28;20178;-79
2023/05/06 09:06:18;;;;;;;4.50;4.10;;;16.10;99.90;;;;;;5101653;28;20632;-80
2023/05/06 09:08:44;;;;;;;7.37;6.20;;;15.90;99.90;;;;;;5099859;28;20193;-79
2023/05/06 09:11:28;;;;;;;5.17;3.90;;;15.90;99.90;;;;;;5101495;28;20210;-79
2023/05/06 09:14:13;;;;;;;5.07;4.57;;;15.80;99.90;;;;;;5100670;28;20174;-79
2023/05/06 09:16:44;;;;;;;6.03;5.23;;;16.70;99.90;;;;;;5100186;28;20264;-80
2023/05/06 09:19:11;;;;;;;4.90;3.60;;;16.80;99.90;;;;;;5101717;28;20215;-79
2023/05/06 09:21:38;;;;;;;8.63;4.80;;;16.90;99.90;;;;;;5099561;28;20276;-79
2023/05/06 09:24:06;;;;;;;5.03;4.43;;;16.70;99.90;;;;;;5101160;28;20640;-79
2023/05/06 09:26:33;;;;;;;6.37;4.50;;;16.50;99.90;;;;;;5100926;28;20692;-79
2023/05/06 09:28:59;;;;;;;6.53;4.20;;;16.20;99.90;;;;;;5100379;28;20707;-79
2023/05/06 09:31:26;;;;;;;5.23;4.60;;;16.20;99.90;;;;;;5100122;28;20179;-79
2023/05/06 09:33:53;;;;;;;6.27;4.10;;;16.00;99.90;;;;;;5099081;28;20247;-79
2023/05/06 09:36:19;;;;;;;5.00;4.00;;;16.00;99.90;;;;;;5101147;28;20545;-79
2023/05/06 09:38:45;;;;;;;4.87;4.33;;;16.10;99.90;;;;;;5101209;28;20193;-79
2023/05/06 09:41:12;;;;;;;4.60;4.17;;;16.10;99.90;;;;;;5100964;28;20208;-79
2023/05/06 09:43:43;;;;;;;7.27;4.73;;;16.10;99.90;;;;;;5101490;28;20184;-79
2023/05/06 09:46:12;;;;;;;5.23;4.50;;;16.20;99.90;;;;;;5100641;28;20230;-79
2023/05/06 09:48:39;;;;;;;4.80;4.10;;;16.20;99.90;;;;;;5101636;28;20196;-79
2023/05/06 09:51:06;;;;;;;7.50;4.60;;;16.20;99.90;;;;;;5102153;28;20203;-79
2023/05/06 09:53:36;;;;;;;5.07;4.57;;;16.10;99.90;;;;;;5101577;28;20181;-79
2023/05/06 09:56:06;;;;;;;4.93;4.10;;;15.90;99.90;;;;;;5111278;28;20207;-80
2023/05/06 09:58:37;;;;;;;5.83;4.77;;;15.90;99.90;;;;;;5109724;28;20197;-79
2023/05/06 10:01:06;;;;;;;5.50;4.33;;;16.60;99.90;;;;;;5099720;28;20158;-79
2023/05/06 10:03:33;;;;;;;4.57;3.80;;;17.60;99.90;;;;;;5099403;28;20252;-79
2023/05/06 10:06:05;;;;;;;5.10;4.30;;;18.90;99.90;;;;;;5096799;28;20571;-79
2023/05/06 10:08:33;;;;;;;4.50;3.70;;;19.60;99.90;;;;;;5098322;28;20260;-79
2023/05/06 10:11:00;;;;;;;4.33;3.80;;;19.30;99.90;;;;;;5098452;28;20670;-80
2023/05/06 10:13:26;;;;;;;5.90;3.80;;;18.50;99.90;;;;;;5099828;28;20168;-79
2023/05/06 10:15:52;;;;;;;9.43;4.00;;;17.90;99.90;;;;;;5100815;28;20703;-79
2023/05/06 10:18:22;;;;;;;4.27;3.47;;;17.60;99.90;;;;;;5102480;28;20195;-79
2023/05/06 10:20:52;;;;;;;4.30;3.90;;;17.30;99.90;;;;;;5101747;28;20172;-79
2023/05/06 10:23:59;;;;;;;4.43;4.03;;;17.20;99.90;;;;;;5102095;28;20224;-79
2023/05/06 10:26:28;;;;;;;5.00;3.90;;;18.10;99.90;;;;;;5039799;28;20173;-79
2023/05/06 10:28:54;;;;;;;6.67;3.93;;;19.10;99.90;;;;;;5093296;28;20218;-79
2023/05/06 10:31:20;;;;;;;4.03;3.70;;;20.20;99.90;;;;;;5102276;28;20168;-80
2023/05/06 10:33:48;;;;;;;4.63;4.10;;;20.90;99.90;;;;;;5102384;28;20254;-79
2023/05/06 10:36:26;;;;;;;4.43;4.03;;;21.20;99.90;;;;;;5102759;28;20164;-79
2023/05/06 10:38:57;;;;;;;5.47;4.10;;;20.60;99.90;;;;;;5102032;28;20581;-79
2023/05/06 10:41:26;;;;;;;4.73;4.30;;;19.70;99.90;;;;;;5100639;28;20212;-78
2023/05/06 10:43:55;;;;;;;6.83;4.43;;;19.00;99.90;;;;;;5102692;28;20218;-79
2023/05/06 10:46:23;;;;;;;4.97;3.90;;;18.50;99.90;;;;;;5095786;28;20169;-77
2023/05/06 10:49:09;;;;;;;5.23;4.10;;;18.00;99.90;;;;;;5094376;28;20188;-77
2023/05/06 10:51:36;;;;;;;4.73;4.17;;;17.70;99.90;;;;;;5094808;28;20163;-78
2023/05/06 10:54:08;;;;;;;6.17;4.07;;;17.50;99.90;;;;;;5093029;28;20713;-79
2023/05/06 10:56:38;;;;;;;4.57;4.17;;;18.10;99.90;;;;;;5093398;28;20618;-78
2023/05/06 10:59:07;;;;;;;5.53;4.17;;;19.40;99.90;;;;;;5094054;28;20184;-78
2023/05/06 11:01:37;;;;;;;4.30;3.80;;;20.60;99.90;;;;;;5093788;28;20195;-78
2023/05/06 11:04:14;;;;;;;6.23;3.77;;;21.30;99.90;;;;;;5094410;28;20172;-78
2023/05/06 11:06:42;;;;;;;4.30;3.90;;;21.40;99.90;;;;;;5094549;28;20175;-78
2023/05/06 11:09:52;;;;;;;5.20;4.13;;;21.30;99.90;;;;;;5095104;28;20185;-78
2023/05/06 11:12:19;;;;;;;4.93;3.70;;;21.00;99.90;;;;;;5099269;28;20173;-78
2023/05/06 11:14:45;;;;;;;9.77;4.80;;;20.50;99.90;;;;;;5101547;28;20225;-78
2023/05/06 11:17:30;;;;;;;21.93;9.93;;;20.90;99.90;;;;;;5095692;28;20200;-77
2023/05/06 11:20:20;;;;;;;29.83;12.50;;;21.90;99.90;;;;;;5094897;28;20159;-78
2023/05/06 11:22:46;;;;;;;5.17;3.97;;;22.10;99.90;;;;;;5094286;28;20192;-78
2023/05/06 11:25:12;;;;;;;8.17;3.80;;;22.10;99.90;;;;;;5093027;28;20267;-78
2023/05/06 11:27:38;;;;;;;7.33;5.17;;;21.70;99.90;;;;;;5094253;28;20642;-78
2023/05/06 11:30:04;;;;;;;5.87;3.70;;;21.00;99.90;;;;;;5093340;28;20172;-77
2023/05/06 11:32:32;;;;;;;5.07;3.40;;;20.50;99.90;;;;;;5093351;28;20253;-77
2023/05/06 11:34:58;;;;;;;7.00;3.67;;;20.20;99.90;;;;;;5093379;28;20626;-78
2023/05/06 11:37:26;;;;;;;3.57;3.27;;;20.00;99.90;;;;;;5093393;28;20616;-77
2023/05/06 11:39:51;;;;;;;6.60;3.90;;;19.70;99.90;;;;;;5092118;28;20882;-77
2023/05/06 11:42:26;;;;;;;5.63;4.00;;;19.50;99.90;;;;;;5093287;28;20320;-77
2023/05/06 11:44:56;;;;;;;4.70;3.50;;;19.30;99.90;;;;;;5092031;28;20701;-77
2023/05/06 11:47:22;;;;;;;4.10;3.30;;;19.20;99.90;;;;;;5093380;28;20191;-78
2023/05/06 11:49:54;;;;;;;5.20;3.57;;;19.00;99.90;;;;;;5092272;28;20271;-78
2023/05/06 11:52:19;;;;;;;6.50;3.90;;;19.00;99.90;;;;;;5094290;28;20157;-79
2023/05/06 11:54:46;;;;;;;4.40;3.73;;;19.00;99.90;;;;;;5094171;28;20176;-80
2023/05/06 11:57:12;;;;;;;6.50;3.60;;;19.10;99.90;;;;;;5095019;28;20200;-78
2023/05/06 11:59:39;;;;;;;6.23;3.57;;;19.50;99.90;;;;;;5094643;28;20176;-79
2023/05/06 12:02:11;;;;;;;7.00;4.30;;;19.90;99.90;;;;;;5094070;28;20192;-79
2023/05/06 12:04:45;;;;;;;7.37;3.27;;;20.40;99.90;;;;;;5095103;28;20149;-79
2023/05/06 12:07:12;;;;;;;4.77;3.30;;;21.70;99.90;;;;;;5095633;28;20249;-79
2023/05/06 12:09:41;;;;;;;9.27;3.40;;;23.00;99.90;;;;;;5095388;28;20173;-78
2023/05/06 12:12:08;;;;;;;9.70;2.83;;;24.00;99.90;;;;;;5095431;28;20235;-78
2023/05/06 12:14:36;;;;;;;4.03;2.93;;;24.70;99.90;;;;;;5094599;28;20242;-78
2023/05/06 12:17:02;;;;;;;3.67;3.13;;;25.20;99.90;;;;;;5094311;28;20183;-79
2023/05/06 12:19:29;;;;;;;4.47;3.03;;;25.80;99.90;;;;;;5093845;28;20539;-79
2023/05/06 12:21:54;;;;;;;4.33;2.60;;;24.90;99.90;;;;;;5094737;28;20264;-78
2023/05/06 12:24:30;;;;;;;4.43;3.17;;;23.40;99.90;;;;;;5094806;28;20184;-78
2023/05/06 12:26:58;;;;;;;4.60;3.47;;;22.20;99.90;;;;;;5093398;28;20175;-78
2023/05/06 12:29:24;;;;;;;3.83;3.10;;;21.60;99.90;;;;;;5097325;28;20168;-77
2023/05/06 12:32:09;;;;;;;4.77;3.23;;;21.10;99.90;;;;;;5095882;28;20180;-77
2023/05/06 12:34:37;;;;;;;6.73;3.47;;;21.40;99.90;;;;;;5096751;28;20164;-77
2023/05/06 12:37:03;;;;;;;4.10;3.27;;;21.50;99.90;;;;;;5096438;28;20169;-77
2023/05/06 12:39:36;;;;;;;4.60;3.73;;;21.00;99.90;;;;;;5096692;28;20171;-77
2023/05/06 12:42:03;;;;;;;7.87;3.50;;;20.50;99.90;;;;;;5096324;28;20538;-76
2023/05/06 12:44:38;;;;;;;4.83;3.70;;;20.30;99.90;;;;;;5096432;28;20180;-79
2023/05/06 12:47:18;;;;;;;4.13;3.60;;;20.30;99.90;;;;;;5097755;28;20163;-80
2023/05/06 12:49:51;;;;;;;4.50;3.43;;;21.70;99.90;;;;;;5097999;28;20192;-79
2023/05/06 12:52:18;;;;;;;4.70;3.43;;;22.90;99.90;;;;;;5100270;28;20239;-79
2023/05/06 12:54:45;;;;;;;4.30;3.07;;;24.10;99.90;;;;;;5098745;28;20643;-79
2023/05/06 12:57:10;;;;;;;5.00;2.90;;;23.80;99.90;;;;;;5098403;28;20214;-78
2023/05/06 12:59:36;;;;;;;2.53;2.33;;;23.10;99.90;;;;;;5101572;28;20183;-78
2023/05/06 13:02:03;;;;;;;4.07;2.90;;;22.70;99.90;;;;;;5100294;28;20196;-79
2023/05/06 13:04:29;;;;;;;4.37;3.00;;;22.40;99.90;;;;;;5099532;28;20175;-77
2023/05/06 13:06:55;;;;;;;3.83;2.70;;;22.50;99.90;;;;;;5096851;28;20210;-77
2023/05/06 13:09:22;;;;;;;4.20;2.67;;;22.90;99.90;;;;;;5096929;28;20180;-79
2023/05/06 13:11:47;;;;;;;3.57;2.30;;;22.90;99.90;;;;;;5098550;28;20320;-79
2023/05/06 13:14:13;;;;;;;2.93;2.47;;;23.10;99.90;;;;;;5096790;28;20713;-78
2023/05/06 13:16:40;;;;;;;3.20;2.87;;;23.20;99.90;;;;;;5098900;28;20172;-79
2023/05/06 13:19:08;;;;;;;3.63;2.60;;;23.80;99.90;;;;;;5095086;28;20204;-77
2023/05/06 13:21:35;;;;;;;3.80;2.60;;;24.30;99.90;;;;;;5094358;28;20201;-77
2023/05/06 13:24:01;;;;;;;2.87;2.27;;;24.00;99.90;;;;;;5095732;28;20173;-77
2023/05/06 13:26:27;;;;;;;3.67;2.20;;;23.40;99.90;;;;;;5094397;28;20175;-76
2023/05/06 13:28:53;;;;;;;4.57;2.27;;;22.50;99.90;;;;;;5095535;28;20552;-77
2023/05/06 13:31:18;;;;;;;3.60;2.30;;;21.90;99.90;;;;;;5095430;28;20173;-77
2023/05/06 13:33:44;;;;;;;2.70;2.30;;;21.90;99.90;;;;;;5095931;28;20650;-78
2023/05/06 13:36:10;;;;;;;4.40;2.10;;;22.80;99.90;;;;;;5095798;28;20178;-77
2023/05/06 13:38:35;;;;;;;4.53;2.20;;;23.70;99.90;;;;;;5094107;28;20560;-77
2023/05/06 13:41:01;;;;;;;4.53;2.00;;;24.30;99.90;;;;;;5095223;28;20181;-77
2023/05/06 13:43:27;;;;;;;2.80;2.20;;;24.60;99.90;;;;;;5094221;28;20651;-77
2023/05/06 13:45:52;;;;;;;3.07;2.03;;;24.60;99.40;;;;;;5094715;28;20648;-78
2023/05/06 13:48:18;;;;;;;2.10;1.90;;;24.30;99.50;;;;;;5095611;28;20188;-78
2023/05/06 13:50:45;;;;;;;4.17;2.00;;;23.70;99.90;;;;;;5096229;28;20233;-78
2023/05/06 13:53:11;;;;;;;3.90;1.80;;;23.10;99.90;;;;;;5094512;28;20369;-76
2023/05/06 13:55:37;;;;;;;3.77;2.00;;;22.60;99.90;;;;;;5097972;28;20652;-78
2023/05/06 13:58:05;;;;;;;2.10;1.90;;;22.40;99.90;;;;;;5098521;28;20192;-79
2023/05/06 14:00:31;;;;;;;3.27;2.20;;;22.00;99.90;;;;;;5098218;28;20254;-79
2023/05/06 14:02:57;;;;;;;4.43;2.23;;;21.70;99.90;;;;;;5100872;28;20204;-79
2023/05/06 14:05:23;;;;;;;4.43;2.53;;;21.30;99.90;;;;;;5096533;28;20226;-77
2023/05/06 14:07:48;;;;;;;3.30;2.00;;;21.20;99.90;;;;;;5098156;28;20251;-79
2023/05/06 14:10:14;;;;;;;8.03;2.50;;;21.10;99.90;;;;;;5099979;28;20256;-80
2023/05/06 14:12:41;;;;;;;3.57;2.17;;;21.20;99.90;;;;;;5097073;28;20214;-77
2023/05/06 14:15:10;;;;;;;3.03;2.33;;;21.70;99.90;;;;;;5095573;28;20258;-78
2023/05/06 14:17:37;;;;;;;2.73;1.90;;;21.90;99.90;;;;;;5096419;28;20193;-80
2023/05/06 14:20:04;;;;;;;2.93;2.10;;;22.40;99.90;;;;;;5098543;28;20229;-78
2023/05/06 14:22:30;;;;;;;2.20;2.00;;;22.80;99.90;;;;;;5093803;28;20207;-79
2023/05/06 14:24:55;;;;;;;5.47;2.17;;;22.70;99.90;;;;;;5098066;28;20651;-80
2023/05/06 14:27:21;;;;;;;3.60;2.10;;;22.00;99.90;;;;;;5096008;28;20198;-77
2023/05/06 14:29:46;;;;;;;4.27;2.00;;;21.40;99.90;;;;;;5095452;28;20263;-78
2023/05/06 14:32:12;;;;;;;3.57;2.20;;;20.90;99.90;;;;;;5095909;28;20603;-79
2023/05/06 14:34:38;;;;;;;3.47;2.13;;;20.70;99.90;;;;;;5096617;28;20177;-78
2023/05/06 14:37:04;;;;;;;7.50;2.37;;;20.50;99.90;;;;;;5095627;28;20179;-78
2023/05/06 14:39:29;;;;;;;3.73;2.30;;;20.50;99.90;;;;;;5094514;28;20182;-79
2023/05/06 14:41:55;;;;;;;3.87;2.20;;;20.90;99.90;;;;;;5099508;28;20214;-80
2023/05/06 14:44:21;;;;;;;2.77;2.17;;;21.20;99.90;;;;;;5101274;28;20176;-79
2023/05/06 14:46:48;;;;;;;3.63;2.50;;;21.20;99.90;;;;;;5101717;28;20256;-79
2023/05/06 14:49:13;;;;;;;3.40;2.53;;;21.00;99.90;;;;;;5100162;28;20656;-79
2023/05/06 14:51:41;;;;;;;3.37;2.50;;;20.70;99.90;;;;;;5102964;28;20203;-79
2023/05/06 14:54:07;;;;;;;2.63;2.13;;;20.30;99.90;;;;;;5106476;28;20169;-78
2023/05/06 14:56:32;;;;;;;4.57;2.70;;;20.00;99.90;;;;;;5099514;28;20199;-79
2023/05/06 14:58:58;;;;;;;3.90;2.20;;;19.60;99.90;;;;;;5099201;28;20666;-78
2023/05/06 15:01:24;;;;;;;4.20;2.57;;;19.40;99.90;;;;;;5098270;28;20193;-79
2023/05/06 15:03:52;;;;;;;4.37;2.30;;;19.30;99.90;;;;;;5097660;28;20184;-79
2023/05/06 15:06:18;;;;;;;2.40;2.20;;;19.20;99.90;;;;;;5098202;28;20263;-78
2023/05/06 15:08:44;;;;;;;2.53;2.00;;;19.10;99.90;;;;;;5096815;28;20194;-78
2023/05/06 15:11:10;;;;;;;6.30;2.10;;;19.00;99.90;;;;;;5098564;28;20165;-80
2023/05/06 15:13:38;;;;;;;3.33;2.20;;;19.00;99.90;;;;;;5097093;28;20531;-78
2023/05/06 15:16:04;;;;;;;3.47;2.60;;;19.10;99.90;;;;;;5096471;28;20173;-79
2023/05/06 15:18:30;;;;;;;2.47;2.20;;;19.10;99.90;;;;;;5077395;28;20205;-79
2023/05/06 15:20:59;;;;;;;2.20;1.97;;;19.10;99.90;;;;;;5092698;28;20267;-77
2023/05/06 15:23:26;;;;;;;2.50;2.30;;;19.10;99.90;;;;;;5093524;28;20168;-77
2023/05/06 15:25:51;;;;;;;3.13;2.30;;;19.20;99.90;;;;;;5092275;28;20176;-77
2023/05/06 15:28:17;;;;;;;3.53;2.40;;;19.30;99.90;;;;;;5093627;28;20269;-77
2023/05/06 15:30:43;;;;;;;5.37;2.30;;;19.40;99.90;;;;;;5091909;28;20215;-77
2023/05/06 15:33:08;;;;;;;10.30;6.07;;;19.40;99.90;;;;;;5092104;28;20180;-77
2023/05/06 15:35:34;;;;;;;6.20;3.00;;;19.30;99.90;;;;;;5093895;28;20164;-77
2023/05/06 15:38:02;;;;;;;3.77;2.83;;;19.30;99.90;;;;;;5092089;28;20192;-76
2023/05/06 15:40:28;;;;;;;5.00;2.37;;;19.30;99.90;;;;;;5092947;28;20653;-77
2023/05/06 15:42:54;;;;;;;3.77;2.57;;;19.30;99.90;;;;;;5093831;28;20204;-77
2023/05/06 15:45:20;;;;;;;134.17;116.40;;;19.40;99.90;;;;;;5093302;28;20222;-77
2023/05/06 15:47:47;;;;;;;55.93;36.00;;;19.40;99.90;;;;;;5093269;28;20188;-77
2023/05/06 15:50:13;;;;;;;4.70;2.50;;;19.50;99.90;;;;;;5093907;28;20252;-78
2023/05/06 15:52:41;;;;;;;10.93;7.77;;;19.50;99.90;;;;;;5091919;28;20176;-78
2023/05/06 15:55:07;;;;;;;4.13;3.00;;;19.40;99.90;;;;;;5092714;28;20184;-78
2023/05/06 15:57:33;;;;;;;10.80;3.07;;;19.40;99.90;;;;;;5094013;28;20192;-78
2023/05/06 15:59:58;;;;;;;7.73;5.27;;;19.40;99.90;;;;;;5094098;28;20238;-78
2023/05/06 16:02:25;;;;;;;165.57;131.10;;;19.70;99.90;;;;;;5093911;28;20200;-78
2023/05/06 16:04:50;;;;;;;12.33;8.97;;;20.00;99.90;;;;;;5098348;28;20203;-78
2023/05/06 16:07:16;;;;;;;120.90;101.80;;;20.30;99.90;;;;;;5099224;28;20192;-77
2023/05/06 16:09:43;;;;;;;4.33;3.90;;;20.20;99.90;;;;;;5095909;28;20172;-77
2023/05/06 16:12:08;;;;;;;5.47;4.30;;;19.90;99.90;;;;;;5102586;28;20252;-79
2023/05/06 16:14:34;;;;;;;3.40;2.40;;;19.80;99.90;;;;;;5102198;28;20203;-77
2023/05/06 16:17:00;;;;;;;9.20;7.23;;;19.50;99.90;;;;;;5099216;28;20187;-79
2023/05/06 16:19:26;;;;;;;20.70;15.60;;;19.40;99.90;;;;;;5101492;28;20199;-83
2023/05/06 16:21:52;;;;;;;14.80;11.10;;;19.40;99.90;;;;;;5102186;28;20283;-82
2023/05/06 16:24:18;;;;;;;12.50;9.73;;;19.30;99.90;;;;;;5102257;28;20175;-80
2023/05/06 16:26:43;;;;;;;21.83;19.10;;;19.30;99.90;;;;;;5102035;28;20173;-83
2023/05/06 16:29:09;;;;;;;7.33;4.67;;;19.20;99.90;;;;;;5100317;28;20189;-80
2023/05/06 16:31:36;;;;;;;5.30;3.90;;;19.10;99.90;;;;;;5101794;28;20186;-82
2023/05/06 16:34:02;;;;;;;8.20;5.03;;;19.00;99.90;;;;;;5100894;28;20177;-80
2023/05/06 16:36:27;;;;;;;27.37;18.57;;;19.00;99.90;;;;;;5099194;28;20199;-76
2023/05/06 16:38:54;;;;;;;7.93;5.70;;;19.00;99.90;;;;;;5095391;28;20195;-76
2023/05/06 16:41:19;;;;;;;4.63;3.83;;;18.90;99.90;;;;;;5096083;28;20254;-76
2023/05/06 16:43:45;;;;;;;18.63;13.87;;;18.90;99.90;;;;;;5096500;28;20188;-75
2023/05/06 16:46:11;;;;;;;4.43;3.20;;;18.90;99.90;;;;;;5096434;28;20683;-76
2023/05/06 16:48:36;;;;;;;7.20;4.63;;;18.80;99.90;;;;;;5096445;28;20192;-75
2023/05/06 16:51:02;;;;;;;80.53;57.33;;;18.80;99.90;;;;;;5096260;28;20165;-75
2023/05/06 16:53:28;;;;;;;23.30;16.80;;;18.80;99.90;;;;;;5096831;28;20263;-78
2023/05/06 16:55:55;;;;;;;4.30;2.60;;;18.60;99.90;;;;;;5097050;28;20261;-77
2023/05/06 16:58:21;;;;;;;2.43;2.23;;;18.60;99.90;;;;;;5097459;28;20184;-78
2023/05/06 17:00:46;;;;;;;4.43;3.40;;;18.50;99.90;;;;;;5097675;28;20203;-77
2023/05/06 17:03:12;;;;;;;5.17;2.73;;;18.40;99.90;;;;;;5095924;28;20204;-76
2023/05/06 17:05:38;;;;;;;6.43;2.50;;;18.40;99.90;;;;;;5099902;28;20175;-78
2023/05/06 17:08:04;;;;;;;2.53;2.20;;;18.40;99.90;;;;;;5096130;28;20188;-78
2023/05/06 17:10:30;;;;;;;2.33;2.03;;;18.30;99.90;;;;;;5099792;28;20657;-79
2023/05/06 17:12:56;;;;;;;2.53;1.90;;;18.20;99.90;;;;;;5100353;28;20172;-79
2023/05/06 17:15:22;;;;;;;3.70;2.67;;;18.20;99.90;;;;;;5097732;28;20186;-78
2023/05/06 17:17:49;;;;;;;6.77;3.87;;;18.10;99.90;;;;;;5095506;28;20203;-79
2023/05/06 17:20:15;;;;;;;4.00;2.50;;;18.00;99.90;;;;;;5100472;28;20252;-77
2023/05/06 17:22:41;;;;;;;7.47;2.23;;;18.00;99.90;;;;;;5095969;28;20275;-78
2023/05/06 17:25:07;;;;;;;4.07;2.10;;;17.90;99.90;;;;;;5098641;28;20168;-78
2023/05/06 17:27:32;;;;;;;4.53;2.07;;;17.80;99.90;;;;;;5100007;28;20192;-78
2023/05/06 17:30:01;;;;;;;2.57;1.83;;;17.80;99.90;;;;;;5096742;28;20183;-76
2023/05/06 17:32:27;;;;;;;4.97;1.60;;;17.70;99.90;;;;;;5098987;28;20187;-79
2023/05/06 17:34:53;;;;;;;3.63;2.10;;;17.70;99.90;;;;;;5098808;28;20258;-81
